Strona główna
METAR-TAF:

METAR-TAF

Lotnisko :

Port lotniczy Hua Hin

Hua Hin, Tajlandia

Szerokość geograficzna: 12-35N, Długość geograficzna: 099-57E, wysokość: 5 m

Aktualna obserwacja pogody

Raport powstał 51 minut temu, godzina 06:00 UTC
Wiatr 10 kt od północno-północny wschód, zmienny między północ i północny wschód
Temperatura 31°C
Wilgotność 49%
Ciśnienie 1016 hPa
Widzialność: 7000 m

METAR: VTPH 220600Z 02010KT 350V050 7000 NSC 31/19 Q1016 NOSIG

czas: 13:51 (06:51 UTC)

Prognoza

Raport powstał 1 godzina i 51 minut temu, godzina 05:00 UTC
Prognoza ważna od 22 godzina 06 UTC do 23 godzina 06 UTC
Wiatr 10 kt od północny wschód
Widzialność: 8000 m
Mało chmury na wysokości 3000 ft
Stopniowe zmiany
od 22 godzina 16 UTC do 22 godzina 18 UTC
Wiatr 5 kt od północno-północny zachód
Stopniowe zmiany
od 23 godzina 02 UTC do 23 godzina 04 UTC
Wiatr 8 kt od północny wschód

TAF: VTPH 220500Z 2206/2306 04010KT 8000 FEW030 BECMG 2216/2218 34005KT BECMG 2302/2304 04008KT

Obserwacja i prognoza pogody dla ponad 4000 lotnisk (raport METAR i TAF).

Dostępne stacje oznaczono żółtymi i czerwonymi punktami na mapie.

Najedź kursorem aby zobaczyć nazwę stacji.

Kliknij aby zobaczyć obserwacje i prognozy pogody.

Aby zmienić mapę: kliknij na zielony przycisk z czarnym krzyżykiem, aby powiększyć; na zielony przycisk z myślnikiem, aby pomniejszyć; na zielone strzałki, aby przejść do map sąsiednich.


METAR-TAF: